Time;durP1;ratioP1;P1;durP2;ratioP2;P2;SDS_P1;SDS_P2;PMS_P1;PMS_P2;Temp;Humidity;BMP_temperature;BMP_pressure;BME280_temperature;BME280_humidity;BME280_pressure;Samples;Min_cycle;Max_cycle;Signal;HPM_P1;HPM_P2
2022/12/30 00:01:38;;;;;;;1.20;1.10;;;;;;;;;;4935039;28;20634;-61
2022/12/30 00:04:06;;;;;;;2.47;1.00;;;;;;;;;;4953364;28;20245;-62
2022/12/30 00:06:33;;;;;;;0.97;0.80;;;;;;;;;;4930868;28;20296;-62
2022/12/30 00:09:01;;;;;;;1.03;1.03;;;;;;;;;;4931456;28;20229;-63
2022/12/30 00:11:29;;;;;;;1.03;1.03;;;;;;;;;;4934979;28;20212;-63
2022/12/30 00:33:51;;;;;;;1.13;1.03;;;;;;;;;;4947630;28;20312;-62
2022/12/30 00:36:18;;;;;;;1.27;0.80;;;;;;;;;;4932230;28;20252;-62
2022/12/30 00:38:46;;;;;;;0.70;0.70;;;;;;;;;;4934758;28;20242;-63
2022/12/30 00:43:59;;;;;;;1.13;0.90;;;;;;;;;;4942906;28;20276;-62
2022/12/30 00:46:26;;;;;;;1.10;1.10;;;;;;;;;;4946357;28;20239;-62
2022/12/30 00:57:13;;;;;;;1.00;0.90;;;;;;;;;;4952485;28;20291;-62
2022/12/30 00:59:41;;;;;;;1.00;1.00;;;;;;;;;;4947397;28;20313;-63
2022/12/30 01:02:08;;;;;;;1.60;1.00;;;;;;;;;;4934305;28;20304;-62
2022/12/30 01:04:36;;;;;;;0.93;0.93;;;;;;;;;;4953484;28;20249;-63
2022/12/30 01:07:03;;;;;;;1.70;0.90;;;;;;;;;;4956254;28;20245;-63
2022/12/30 01:09:30;;;;;;;1.57;1.10;;;;;;;;;;4944396;28;20307;-63
2022/12/30 01:12:07;;;;;;;0.90;0.90;;;;;;;;;;4957202;28;20259;-63
2022/12/30 01:14:35;;;;;;;1.00;1.00;;;;;;;;;;4932613;28;20326;-62
2022/12/30 01:17:04;;;;;;;0.90;0.90;;;;;;;;;;4951889;28;20213;-62
2022/12/30 01:19:31;;;;;;;0.90;0.83;;;;;;;;;;4935660;28;20205;-62
2022/12/30 01:21:59;;;;;;;0.90;0.90;;;;;;;;;;4934192;28;20263;-62
2022/12/30 01:24:27;;;;;;;1.00;1.00;;;;;;;;;;4932690;28;20736;-62
2022/12/30 01:26:54;;;;;;;1.43;0.90;;;;;;;;;;4921298;28;20325;-62
2022/12/30 01:29:21;;;;;;;0.90;0.90;;;;;;;;;;4925275;28;20677;-62
2022/12/30 01:31:49;;;;;;;1.00;1.00;;;;;;;;;;4938834;28;20221;-62
2022/12/30 01:34:16;;;;;;;1.63;1.00;;;;;;;;;;4951364;28;20225;-63
2022/12/30 01:36:44;;;;;;;1.20;1.10;;;;;;;;;;4946019;28;20635;-62
2022/12/30 01:39:11;;;;;;;1.27;1.00;;;;;;;;;;4934613;28;20291;-62
2022/12/30 01:41:39;;;;;;;0.90;0.90;;;;;;;;;;4938742;28;20653;-62
2022/12/30 01:44:25;;;;;;;0.80;0.80;;;;;;;;;;4931581;28;20647;-63
2022/12/30 01:46:52;;;;;;;0.73;0.73;;;;;;;;;;4932200;28;20297;-63
2022/12/30 01:49:20;;;;;;;1.00;0.90;;;;;;;;;;4941925;28;20263;-62
2022/12/30 01:51:47;;;;;;;1.00;1.00;;;;;;;;;;4932775;28;20252;-63
2022/12/30 01:54:15;;;;;;;0.80;0.80;;;;;;;;;;4949135;28;20648;-63
2022/12/30 01:56:42;;;;;;;1.00;1.00;;;;;;;;;;4930440;28;20296;-62
2022/12/30 01:59:15;;;;;;;1.20;1.20;;;;;;;;;;4933706;28;20255;-63
2022/12/30 02:01:44;;;;;;;1.67;1.57;;;;;;;;;;4935458;28;20232;-63
2022/12/30 02:04:15;;;;;;;1.30;1.10;;;;;;;;;;4937163;28;20299;-63
2022/12/30 02:06:46;;;;;;;1.87;1.37;;;;;;;;;;4947090;28;20304;-62
2022/12/30 02:09:13;;;;;;;1.30;1.20;;;;;;;;;;4940021;28;20616;-64
2022/12/30 02:11:40;;;;;;;1.20;1.10;;;;;;;;;;4927300;28;20576;-62
2022/12/30 02:14:08;;;;;;;1.10;1.10;;;;;;;;;;4924356;28;20311;-62
2022/12/30 02:16:39;;;;;;;2.50;1.10;;;;;;;;;;4928986;28;20303;-63
2022/12/30 02:19:06;;;;;;;0.90;0.90;;;;;;;;;;4932755;28;20213;-63
2022/12/30 02:21:34;;;;;;;0.90;0.90;;;;;;;;;;4919934;28;20395;-62
2022/12/30 02:24:04;;;;;;;1.00;1.00;;;;;;;;;;4938699;28;20240;-62
2022/12/30 02:26:34;;;;;;;0.90;0.90;;;;;;;;;;4938891;28;20292;-63
2022/12/30 02:29:21;;;;;;;0.87;0.87;;;;;;;;;;4923353;28;20209;-63
2022/12/30 02:31:57;;;;;;;1.50;0.90;;;;;;;;;;4940831;28;20393;-62
2022/12/30 02:34:25;;;;;;;1.33;1.20;;;;;;;;;;4933904;28;20245;-62
2022/12/30 02:37:01;;;;;;;0.87;0.87;;;;;;;;;;4944477;28;20219;-62
2022/12/30 02:39:44;;;;;;;1.03;1.00;;;;;;;;;;4931989;28;20715;-64
2022/12/30 02:45:07;;;;;;;0.73;0.73;;;;;;;;;;4942422;28;20775;-62
2022/12/30 02:47:54;;;;;;;1.87;0.87;;;;;;;;;;4948196;28;20375;-62
2022/12/30 02:53:12;;;;;;;1.10;1.00;;;;;;;;;;4953509;28;20346;-62
2022/12/30 02:55:40;;;;;;;0.80;0.80;;;;;;;;;;4947045;28;20209;-62
2022/12/30 02:58:10;;;;;;;0.90;0.90;;;;;;;;;;4923279;28;20209;-62
2022/12/30 03:03:59;;;;;;;1.00;1.00;;;;;;;;;;4918495;28;20237;-62
2022/12/30 03:06:35;;;;;;;0.90;0.90;;;;;;;;;;4937248;28;20307;-62
2022/12/30 03:09:23;;;;;;;0.80;0.80;;;;;;;;;;4956607;28;20200;-62
2022/12/30 03:12:09;;;;;;;3.27;1.10;;;;;;;;;;4932172;28;20296;-63
2022/12/30 03:14:43;;;;;;;1.00;1.00;;;;;;;;;;4941465;28;20212;-62
2022/12/30 03:17:29;;;;;;;1.00;1.00;;;;;;;;;;4936109;28;20217;-64
2022/12/30 03:19:58;;;;;;;1.30;1.20;;;;;;;;;;4941512;28;20284;-63
2022/12/30 03:28:01;;;;;;;1.67;1.57;;;;;;;;;;4944319;28;21169;-62
2022/12/30 03:30:29;;;;;;;1.17;1.17;;;;;;;;;;4928366;28;20220;-62
2022/12/30 03:32:57;;;;;;;1.43;1.40;;;;;;;;;;4926149;28;20256;-62
2022/12/30 03:35:26;;;;;;;1.30;1.30;;;;;;;;;;4944839;28;20645;-64
2022/12/30 03:37:54;;;;;;;1.70;1.60;;;;;;;;;;4942126;28;20243;-62
2022/12/30 03:40:30;;;;;;;1.50;1.50;;;;;;;;;;4944632;28;20208;-64
2022/12/30 03:42:58;;;;;;;2.00;1.90;;;;;;;;;;4932470;28;20275;-62
2022/12/30 03:45:26;;;;;;;2.37;2.17;;;;;;;;;;4932829;28;20221;-63
2022/12/30 03:47:54;;;;;;;2.00;1.90;;;;;;;;;;4928354;28;20255;-64
2022/12/30 03:50:21;;;;;;;2.20;2.10;;;;;;;;;;4937712;28;20217;-63
2022/12/30 03:52:49;;;;;;;2.07;1.97;;;;;;;;;;4931723;28;22038;-62
2022/12/30 03:55:16;;;;;;;2.20;2.10;;;;;;;;;;4912854;28;20332;-62
2022/12/30 03:57:44;;;;;;;2.20;2.10;;;;;;;;;;4921012;28;20347;-62
2022/12/30 04:00:13;;;;;;;2.10;2.00;;;;;;;;;;4901735;28;20213;-63
2022/12/30 04:02:40;;;;;;;2.10;2.00;;;;;;;;;;4892909;28;20233;-62
2022/12/30 04:05:08;;;;;;;2.20;2.10;;;;;;;;;;4900981;28;20224;-62
2022/12/30 04:07:36;;;;;;;2.13;2.03;;;;;;;;;;4899238;28;20259;-61
2022/12/30 04:10:04;;;;;;;2.03;1.90;;;;;;;;;;4908136;28;20336;-61
2022/12/30 04:12:31;;;;;;;2.10;2.00;;;;;;;;;;4906792;28;20295;-64
2022/12/30 04:14:58;;;;;;;1.70;1.60;;;;;;;;;;4920161;28;20291;-62
2022/12/30 04:17:29;;;;;;;2.10;2.00;;;;;;;;;;4921508;28;20732;-62
2022/12/30 04:19:59;;;;;;;2.10;1.90;;;;;;;;;;4939346;28;20232;-63
2022/12/30 04:22:28;;;;;;;1.90;1.80;;;;;;;;;;4925255;28;20281;-63
2022/12/30 04:24:55;;;;;;;1.80;1.70;;;;;;;;;;4922250;28;20779;-62
2022/12/30 04:27:24;;;;;;;1.60;1.60;;;;;;;;;;4920434;28;20228;-62
2022/12/30 04:29:51;;;;;;;1.63;1.60;;;;;;;;;;4910158;28;20208;-62
2022/12/30 04:32:19;;;;;;;1.60;1.60;;;;;;;;;;4928865;28;20240;-63
2022/12/30 04:34:47;;;;;;;1.60;1.60;;;;;;;;;;4923447;28;20228;-63
2022/12/30 04:37:14;;;;;;;1.90;1.80;;;;;;;;;;4957878;28;20300;-63
2022/12/30 04:39:41;;;;;;;1.80;1.70;;;;;;;;;;4941301;28;20308;-62
2022/12/30 04:42:09;;;;;;;1.60;1.50;;;;;;;;;;4938659;28;20292;-62
2022/12/30 04:44:36;;;;;;;1.87;1.50;;;;;;;;;;4939644;28;20288;-63
2022/12/30 04:47:04;;;;;;;1.87;1.77;;;;;;;;;;4928100;28;20240;-63
2022/12/30 04:49:31;;;;;;;1.80;1.70;;;;;;;;;;4941500;28;20249;-64
2022/12/30 04:51:58;;;;;;;1.37;1.37;;;;;;;;;;4925147;28;20818;-62
2022/12/30 04:54:26;;;;;;;1.63;1.50;;;;;;;;;;4926237;28;20261;-63
2022/12/30 04:56:54;;;;;;;1.30;1.30;;;;;;;;;;4912600;28;20342;-62
2022/12/30 04:59:21;;;;;;;1.70;1.60;;;;;;;;;;4939072;28;20259;-63
2022/12/30 05:01:48;;;;;;;1.40;1.40;;;;;;;;;;4916275;28;20216;-63
2022/12/30 05:04:18;;;;;;;2.10;1.90;;;;;;;;;;4921629;28;20322;-63
2022/12/30 05:06:45;;;;;;;1.53;1.43;;;;;;;;;;4920315;28;20210;-63
2022/12/30 05:09:13;;;;;;;1.90;1.80;;;;;;;;;;4933570;28;20209;-62
2022/12/30 05:11:40;;;;;;;1.70;1.60;;;;;;;;;;4941310;28;20208;-63
2022/12/30 05:14:08;;;;;;;1.50;1.50;;;;;;;;;;4953106;28;20224;-63
2022/12/30 05:16:35;;;;;;;1.60;1.50;;;;;;;;;;4947218;28;20280;-63
2022/12/30 05:19:03;;;;;;;1.70;1.60;;;;;;;;;;4935406;28;20267;-63
2022/12/30 05:21:31;;;;;;;1.97;1.50;;;;;;;;;;4933526;28;20299;-63
2022/12/30 05:26:47;;;;;;;1.80;1.50;;;;;;;;;;4935486;28;20217;-63
2022/12/30 05:29:15;;;;;;;1.40;1.40;;;;;;;;;;4933878;28;20224;-62
2022/12/30 05:31:43;;;;;;;1.43;1.33;;;;;;;;;;4934813;28;20705;-64
2022/12/30 05:34:10;;;;;;;1.93;1.30;;;;;;;;;;4918049;28;20232;-63
2022/12/30 05:36:38;;;;;;;1.50;1.40;;;;;;;;;;4922861;28;20684;-63
2022/12/30 05:39:06;;;;;;;1.60;1.50;;;;;;;;;;4913630;28;20295;-63
2022/12/30 05:41:33;;;;;;;1.37;1.27;;;;;;;;;;4918558;28;20837;-63
2022/12/30 05:44:01;;;;;;;3.37;1.60;;;;;;;;;;4923119;28;20236;-64
2022/12/30 05:46:28;;;;;;;1.67;1.57;;;;;;;;;;4926889;28;20245;-63
2022/12/30 05:48:56;;;;;;;3.10;1.60;;;;;;;;;;4917975;28;20264;-64
2022/12/30 05:51:26;;;;;;;2.23;1.60;;;;;;;;;;4935460;28;20235;-63
2022/12/30 05:53:54;;;;;;;1.43;1.43;;;;;;;;;;4927540;28;20229;-63
2022/12/30 05:56:22;;;;;;;2.00;1.90;;;;;;;;;;4926455;28;20205;-63
2022/12/30 05:58:49;;;;;;;1.80;1.70;;;;;;;;;;4936139;28;20300;-63
2022/12/30 06:01:16;;;;;;;1.63;1.50;;;;;;;;;;4919974;28;20305;-63
2022/12/30 06:03:44;;;;;;;2.27;1.53;;;;;;;;;;4932337;28;20529;-63
2022/12/30 06:06:12;;;;;;;3.67;1.70;;;;;;;;;;4915014;28;20235;-62
2022/12/30 06:08:40;;;;;;;1.77;1.67;;;;;;;;;;4934283;28;20221;-62
2022/12/30 06:11:07;;;;;;;1.80;1.70;;;;;;;;;;4918231;28;20308;-62
2022/12/30 06:13:35;;;;;;;1.80;1.70;;;;;;;;;;4926080;28;20311;-63
2022/12/30 06:16:02;;;;;;;2.67;1.70;;;;;;;;;;4916637;28;20733;-63
2022/12/30 06:18:29;;;;;;;1.60;1.50;;;;;;;;;;4921940;28;20921;-63
2022/12/30 06:20:57;;;;;;;1.63;1.30;;;;;;;;;;4921187;28;20248;-62
2022/12/30 06:23:26;;;;;;;1.97;1.80;;;;;;;;;;4921303;28;20236;-63
2022/12/30 06:25:54;;;;;;;1.50;1.40;;;;;;;;;;4921308;28;20497;-62
2022/12/30 06:28:22;;;;;;;3.07;1.63;;;;;;;;;;4922788;28;20204;-63
2022/12/30 06:30:50;;;;;;;1.60;1.50;;;;;;;;;;4915164;28;20916;-63
2022/12/30 06:33:18;;;;;;;2.00;1.50;;;;;;;;;;4919946;28;20226;-62
2022/12/30 06:35:46;;;;;;;1.57;1.30;;;;;;;;;;4926105;28;20223;-64
2022/12/30 06:38:14;;;;;;;2.10;1.40;;;;;;;;;;4921585;28;20228;-64
2022/12/30 06:40:44;;;;;;;2.10;1.60;;;;;;;;;;4921947;28;20220;-62
2022/12/30 06:43:12;;;;;;;1.40;1.40;;;;;;;;;;4923770;28;20593;-62
2022/12/30 06:45:39;;;;;;;1.33;1.33;;;;;;;;;;4936325;28;20309;-63
2022/12/30 06:48:07;;;;;;;1.97;1.47;;;;;;;;;;4926160;28;20249;-62
2022/12/30 06:50:36;;;;;;;1.50;1.40;;;;;;;;;;4914165;28;20217;-62
2022/12/30 06:53:04;;;;;;;1.90;1.80;;;;;;;;;;4923344;28;20236;-63
2022/12/30 06:55:32;;;;;;;1.83;1.73;;;;;;;;;;4916450;28;22413;-62
2022/12/30 06:58:05;;;;;;;1.40;1.30;;;;;;;;;;4914460;28;20213;-63
2022/12/30 07:00:33;;;;;;;1.60;1.60;;;;;;;;;;4916193;28;20227;-63
2022/12/30 07:03:00;;;;;;;1.70;1.60;;;;;;;;;;4916553;28;20750;-62
2022/12/30 07:05:28;;;;;;;1.30;1.30;;;;;;;;;;4915058;28;20294;-64
2022/12/30 07:07:56;;;;;;;1.10;1.10;;;;;;;;;;4921292;28;20213;-63
2022/12/30 07:10:23;;;;;;;1.30;1.30;;;;;;;;;;4914304;28;20384;-62
2022/12/30 07:12:51;;;;;;;2.53;1.40;;;;;;;;;;4938562;28;20238;-64
2022/12/30 07:15:18;;;;;;;2.33;1.47;;;;;;;;;;4953798;28;20689;-63
2022/12/30 07:17:46;;;;;;;1.97;1.37;;;;;;;;;;4937173;28;20323;-64
2022/12/30 07:20:13;;;;;;;1.40;1.30;;;;;;;;;;4930944;28;20283;-64
2022/12/30 07:22:41;;;;;;;3.83;3.20;;;;;;;;;;4928461;28;20243;-64
2022/12/30 07:25:08;;;;;;;8.20;5.20;;;;;;;;;;4914804;28;20225;-63
2022/12/30 07:27:36;;;;;;;2.93;2.63;;;;;;;;;;4922168;28;20216;-64
2022/12/30 07:30:04;;;;;;;1.60;1.50;;;;;;;;;;4920926;28;20291;-64
2022/12/30 07:32:31;;;;;;;2.77;2.57;;;;;;;;;;4909880;28;20210;-64
2022/12/30 07:34:59;;;;;;;2.60;2.40;;;;;;;;;;4919390;28;20223;-64
2022/12/30 07:37:26;;;;;;;1.87;1.40;;;;;;;;;;4928685;28;20245;-64
2022/12/30 07:39:53;;;;;;;1.60;1.50;;;;;;;;;;4926321;28;20224;-64
2022/12/30 07:42:21;;;;;;;2.40;2.20;;;;;;;;;;4918118;28;20215;-64
2022/12/30 07:44:48;;;;;;;2.80;2.60;;;;;;;;;;4924324;28;20220;-64
2022/12/30 07:47:15;;;;;;;2.00;1.90;;;;;;;;;;4917346;28;20352;-63
2022/12/30 07:49:43;;;;;;;2.00;1.73;;;;;;;;;;4916839;28;20913;-64
2022/12/30 07:52:10;;;;;;;2.10;2.00;;;;;;;;;;4922192;28;20240;-63
2022/12/30 07:54:38;;;;;;;2.57;2.13;;;;;;;;;;4921762;28;20233;-64
2022/12/30 07:57:05;;;;;;;2.07;1.80;;;;;;;;;;4917475;28;20216;-64
2022/12/30 07:59:33;;;;;;;1.70;1.60;;;;;;;;;;4919362;28;20304;-64
2022/12/30 08:02:00;;;;;;;1.77;1.67;;;;;;;;;;4934780;28;20216;-64
2022/12/30 08:04:28;;;;;;;2.13;1.60;;;;;;;;;;4925394;28;20248;-64
2022/12/30 08:07:19;;;;;;;2.53;1.53;;;;;;;;;;4936793;28;20232;-63
2022/12/30 08:09:46;;;;;;;2.07;1.97;;;;;;;;;;4923509;28;20339;-64
2022/12/30 08:12:14;;;;;;;3.30;2.00;;;;;;;;;;4937649;28;20669;-64
2022/12/30 08:14:41;;;;;;;2.47;2.27;;;;;;;;;;4923715;28;20429;-64
2022/12/30 08:17:08;;;;;;;3.07;2.23;;;;;;;;;;4941208;28;20220;-64
2022/12/30 08:19:36;;;;;;;2.73;1.83;;;;;;;;;;4936687;28;20253;-64
2022/12/30 08:22:04;;;;;;;2.27;2.07;;;;;;;;;;4924794;28;21522;-63
2022/12/30 08:24:31;;;;;;;3.00;2.70;;;;;;;;;;4925832;28;20228;-63
2022/12/30 08:26:59;;;;;;;2.60;2.40;;;;;;;;;;4919718;28;20265;-62
2022/12/30 08:29:26;;;;;;;2.07;1.97;;;;;;;;;;4918157;28;20213;-63
2022/12/30 08:31:56;;;;;;;2.53;2.17;;;;;;;;;;4911197;28;20251;-63
2022/12/30 08:34:24;;;;;;;2.33;2.00;;;;;;;;;;4913584;28;20794;-63
2022/12/30 08:36:52;;;;;;;2.63;2.13;;;;;;;;;;4939153;28;20756;-62
2022/12/30 08:39:19;;;;;;;2.47;2.27;;;;;;;;;;4941576;28;20251;-63
2022/12/30 08:41:47;;;;;;;4.57;3.43;;;;;;;;;;4945790;28;20249;-63
2022/12/30 08:44:23;;;;;;;9.47;7.40;;;;;;;;;;4950760;28;20240;-63
2022/12/30 08:46:50;;;;;;;5.00;4.60;;;;;;;;;;4929448;28;20236;-63
2022/12/30 08:49:18;;;;;;;4.50;4.10;;;;;;;;;;4918966;28;20693;-63
2022/12/30 08:51:45;;;;;;;3.57;3.20;;;;;;;;;;4925245;28;20300;-62
2022/12/30 08:54:13;;;;;;;2.67;2.47;;;;;;;;;;4931496;28;20603;-64
2022/12/30 08:56:41;;;;;;;3.93;3.53;;;;;;;;;;4921640;28;20204;-63
2022/12/30 08:59:09;;;;;;;3.27;3.00;;;;;;;;;;4918578;28;20250;-62
2022/12/30 09:01:42;;;;;;;2.97;2.77;;;;;;;;;;4919999;28;20681;-63
2022/12/30 09:04:11;;;;;;;2.90;2.70;;;;;;;;;;4919684;28;20316;-63
2022/12/30 09:06:39;;;;;;;3.43;2.93;;;;;;;;;;4918239;28;20233;-62
2022/12/30 09:09:07;;;;;;;3.50;3.20;;;;;;;;;;4920825;28;20283;-63
2022/12/30 09:11:37;;;;;;;3.70;3.40;;;;;;;;;;4930590;28;20209;-63
2022/12/30 09:14:06;;;;;;;4.60;4.20;;;;;;;;;;4947332;28;20292;-63
2022/12/30 09:16:33;;;;;;;6.00;5.40;;;;;;;;;;4929244;28;20306;-62
2022/12/30 09:19:00;;;;;;;5.33;4.70;;;;;;;;;;4939607;28;20259;-62
2022/12/30 09:21:28;;;;;;;4.03;3.73;;;;;;;;;;4944544;28;20213;-62
2022/12/30 09:23:55;;;;;;;4.73;4.33;;;;;;;;;;4945720;28;20237;-63
2022/12/30 09:26:23;;;;;;;4.37;3.97;;;;;;;;;;4918178;28;20311;-62
2022/12/30 09:28:52;;;;;;;3.90;3.60;;;;;;;;;;4923431;28;20821;-62
2022/12/30 09:31:20;;;;;;;4.87;4.30;;;;;;;;;;4909663;28;20224;-63
2022/12/30 09:33:48;;;;;;;4.23;3.83;;;;;;;;;;4920492;28;20237;-63
2022/12/30 09:36:15;;;;;;;4.87;3.77;;;;;;;;;;4912863;28;20344;-63
2022/12/30 09:38:43;;;;;;;5.83;3.83;;;;;;;;;;4916980;28;20220;-63
2022/12/30 09:41:19;;;;;;;3.77;3.47;;;;;;;;;;4932478;28;20304;-64
2022/12/30 09:43:53;;;;;;;4.57;4.17;;;;;;;;;;4922485;28;20228;-63
2022/12/30 09:46:24;;;;;;;4.47;3.83;;;;;;;;;;4914168;28;20267;-63
2022/12/30 09:48:55;;;;;;;4.37;3.97;;;;;;;;;;4928974;28;20705;-63
2022/12/30 09:51:26;;;;;;;3.53;3.23;;;;;;;;;;4923531;28;20267;-63
2022/12/30 09:53:56;;;;;;;3.10;2.77;;;;;;;;;;4914693;28;20230;-63
2022/12/30 09:56:29;;;;;;;5.30;3.40;;;;;;;;;;4933293;28;20214;-63
2022/12/30 09:58:59;;;;;;;2.83;2.63;;;;;;;;;;4914201;28;20213;-62
2022/12/30 10:01:29;;;;;;;2.53;2.33;;;;;;;;;;4918674;28;20230;-64
2022/12/30 10:03:58;;;;;;;3.13;2.93;;;;;;;;;;4923730;28;20265;-64
2022/12/30 10:06:29;;;;;;;2.17;2.07;;;;;;;;;;4912694;28;21942;-64
2022/12/30 10:09:09;;;;;;;2.43;2.33;;;;;;;;;;4921557;28;20583;-64
2022/12/30 10:11:43;;;;;;;2.50;2.40;;;;;;;;;;4916344;28;23551;-64
2022/12/30 10:14:15;;;;;;;2.87;2.60;;;;;;;;;;4914296;28;20227;-64
2022/12/30 10:17:21;;;;;;;2.40;2.20;;;;;;;;;;4932377;28;20300;-64
2022/12/30 10:19:58;;;;;;;2.80;2.60;;;;;;;;;;4843627;29;20234;-64
2022/12/30 10:22:37;;;;;;;4.33;2.80;;;;;;;;;;4846196;29;20210;-64
2022/12/30 10:25:16;;;;;;;2.30;2.20;;;;;;;;;;4893875;28;20221;-64
2022/12/30 10:27:52;;;;;;;2.33;2.23;;;;;;;;;;4925926;28;20614;-64
2022/12/30 10:30:21;;;;;;;1.90;1.80;;;;;;;;;;4922627;28;20220;-64
2022/12/30 10:32:54;;;;;;;2.20;2.10;;;;;;;;;;4916492;28;21241;-64
2022/12/30 10:35:25;;;;;;;2.73;1.97;;;;;;;;;;4944422;28;20296;-64
2022/12/30 10:38:03;;;;;;;4.00;2.97;;;;;;;;;;4914384;28;20205;-64
2022/12/30 10:40:38;;;;;;;2.20;2.10;;;;;;;;;;4919275;28;20287;-64
2022/12/30 10:43:41;;;;;;;2.93;2.07;;;;;;;;;;4923660;28;20239;-64
2022/12/30 10:46:08;;;;;;;2.57;2.27;;;;;;;;;;4927298;28;20223;-64
2022/12/30 10:48:48;;;;;;;2.30;2.10;;;;;;;;;;4913044;28;20208;-65
2022/12/30 10:51:17;;;;;;;2.23;2.10;;;;;;;;;;4917963;28;21276;-65
2022/12/30 10:53:46;;;;;;;2.13;2.03;;;;;;;;;;4928056;28;20756;-66
2022/12/30 10:56:22;;;;;;;2.17;1.87;;;;;;;;;;4920632;28;20682;-66
2022/12/30 10:58:50;;;;;;;4.00;2.00;;;;;;;;;;4925090;28;20836;-65
2022/12/30 11:01:31;;;;;;;2.23;2.07;;;;;;;;;;4918048;28;20220;-65
2022/12/30 11:03:59;;;;;;;2.77;1.70;;;;;;;;;;4914938;28;20756;-65
2022/12/30 11:06:28;;;;;;;1.60;1.50;;;;;;;;;;4925053;28;20656;-65
2022/12/30 11:09:19;;;;;;;1.63;1.53;;;;;;;;;;4923813;28;20365;-65
2022/12/30 11:15:05;;;;;;;1.97;1.50;;;;;;;;;;4956804;28;20665;-66
2022/12/30 11:17:45;;;;;;;2.83;1.60;;;;;;;;;;4932687;28;20239;-64
2022/12/30 11:20:13;;;;;;;1.40;1.30;;;;;;;;;;4941507;28;21229;-63
2022/12/30 11:22:51;;;;;;;1.70;1.60;;;;;;;;;;4941897;28;20712;-65
2022/12/30 11:25:34;;;;;;;2.20;1.50;;;;;;;;;;4919729;28;20223;-64
2022/12/30 11:28:04;;;;;;;1.30;1.30;;;;;;;;;;4922682;28;20249;-64
2022/12/30 11:30:36;;;;;;;1.13;1.13;;;;;;;;;;4919667;28;20208;-65
2022/12/30 11:33:05;;;;;;;4.20;1.80;;;;;;;;;;4937310;28;20833;-65
2022/12/30 11:35:45;;;;;;;2.20;2.00;;;;;;;;;;4921197;28;20212;-65
2022/12/30 11:38:29;;;;;;;1.50;1.40;;;;;;;;;;4923131;28;20304;-65
2022/12/30 11:40:57;;;;;;;1.83;1.30;;;;;;;;;;4943416;28;20690;-64
2022/12/30 11:43:25;;;;;;;1.00;1.00;;;;;;;;;;4914876;28;20228;-64
2022/12/30 11:46:07;;;;;;;1.40;1.30;;;;;;;;;;4939459;28;20209;-64
2022/12/30 11:48:37;;;;;;;1.03;1.03;;;;;;;;;;4917856;28;20200;-65
2022/12/30 11:51:14;;;;;;;1.33;1.33;;;;;;;;;;4921995;28;20217;-64
2022/12/30 11:53:42;;;;;;;1.90;1.63;;;;;;;;;;4919397;28;20320;-65
2022/12/30 11:56:09;;;;;;;1.63;1.10;;;;;;;;;;4918881;28;20355;-64
2022/12/30 11:58:38;;;;;;;1.23;1.17;;;;;;;;;;4922796;28;20296;-64
2022/12/30 12:01:07;;;;;;;1.20;1.20;;;;;;;;;;4931491;28;20271;-64
2022/12/30 12:03:46;;;;;;;1.50;1.20;;;;;;;;;;4919831;28;20689;-64
2022/12/30 12:06:14;;;;;;;1.30;1.20;;;;;;;;;;4944075;28;20240;-64
2022/12/30 12:08:51;;;;;;;1.50;1.40;;;;;;;;;;4923405;28;20825;-65
2022/12/30 12:11:21;;;;;;;1.17;1.17;;;;;;;;;;4922666;28;20295;-64
2022/12/30 12:13:54;;;;;;;1.20;1.20;;;;;;;;;;4928104;28;20284;-64
2022/12/30 12:16:48;;;;;;;0.90;0.90;;;;;;;;;;4926275;28;20227;-64
2022/12/30 12:19:34;;;;;;;2.17;1.97;;;;;;;;;;4901916;28;20259;-66
2022/12/30 12:22:04;;;;;;;1.60;1.50;;;;;;;;;;4940679;28;20669;-63
2022/12/30 12:24:42;;;;;;;1.70;1.60;;;;;;;;;;4919218;28;21809;-65
2022/12/30 12:27:12;;;;;;;2.03;1.93;;;;;;;;;;4920619;28;20232;-64
2022/12/30 12:29:40;;;;;;;2.67;2.47;;;;;;;;;;4940421;28;20216;-62
2022/12/30 12:32:27;;;;;;;2.57;2.37;;;;;;;;;;4928697;28;20247;-63
2022/12/30 12:35:24;;;;;;;1.90;1.30;;;;;;;;;;4928534;28;20216;-64
2022/12/30 12:38:14;;;;;;;3.93;2.57;;;;;;;;;;4938617;28;20237;-63
2022/12/30 12:40:47;;;;;;;9.37;5.77;;;;;;;;;;4943896;28;20217;-63
2022/12/30 12:43:23;;;;;;;1.70;1.60;;;;;;;;;;4926530;28;20280;-63
2022/12/30 12:46:09;;;;;;;2.43;2.23;;;;;;;;;;4933515;28;20221;-63
2022/12/30 12:49:00;;;;;;;1.67;1.57;;;;;;;;;;4920863;28;20209;-62
2022/12/30 12:51:41;;;;;;;2.17;2.00;;;;;;;;;;4924751;28;20209;-63
2022/12/30 12:54:28;;;;;;;2.67;1.77;;;;;;;;;;4921424;28;21025;-62
2022/12/30 12:57:26;;;;;;;5.57;4.30;;;;;;;;;;4924864;28;20766;-63
2022/12/30 13:00:11;;;;;;;5.10;3.90;;;;;;;;;;4920854;28;20304;-62
2022/12/30 13:02:57;;;;;;;4.63;3.90;;;;;;;;;;4936696;28;20229;-63
2022/12/30 13:05:38;;;;;;;4.40;3.37;;;;;;;;;;4918163;28;20558;-65
2022/12/30 13:08:08;;;;;;;3.30;2.20;;;;;;;;;;4920702;28;20248;-64
2022/12/30 13:10:48;;;;;;;2.93;2.63;;;;;;;;;;4936372;28;20201;-64
2022/12/30 13:13:40;;;;;;;3.60;2.77;;;;;;;;;;4945374;28;21761;-66
2022/12/30 13:16:15;;;;;;;2.60;2.23;;;;;;;;;;4943732;28;20209;-66
2022/12/30 13:18:44;;;;;;;3.63;2.47;;;;;;;;;;4967629;28;20211;-65
2022/12/30 13:21:13;;;;;;;1.60;1.50;;;;;;;;;;4944019;28;20213;-65
2022/12/30 13:23:48;;;;;;;1.70;1.60;;;;;;;;;;4928864;28;20224;-65
2022/12/30 13:26:16;;;;;;;2.17;1.97;;;;;;;;;;4939701;28;20220;-66
2022/12/30 13:28:47;;;;;;;2.07;1.97;;;;;;;;;;4923914;28;20252;-64
2022/12/30 13:31:15;;;;;;;1.47;1.40;;;;;;;;;;4911499;28;20313;-64
2022/12/30 13:33:57;;;;;;;1.47;1.37;;;;;;;;;;4934267;28;20266;-64
2022/12/30 13:36:39;;;;;;;1.43;1.33;;;;;;;;;;4925942;28;20209;-63
2022/12/30 13:39:18;;;;;;;1.60;1.50;;;;;;;;;;4923475;28;20213;-64
2022/12/30 13:41:55;;;;;;;1.83;1.40;;;;;;;;;;4910922;28;20213;-65
2022/12/30 13:44:24;;;;;;;1.50;1.40;;;;;;;;;;4910201;28;21603;-62
2022/12/30 13:46:53;;;;;;;1.57;1.47;;;;;;;;;;4919550;28;20324;-62
2022/12/30 13:49:25;;;;;;;2.90;1.90;;;;;;;;;;4922377;28;20219;-62
2022/12/30 13:52:03;;;;;;;1.50;1.40;;;;;;;;;;4925316;28;20241;-65
2022/12/30 13:54:31;;;;;;;3.13;2.10;;;;;;;;;;4918812;28;20265;-63
2022/12/30 13:57:00;;;;;;;1.40;1.30;;;;;;;;;;4921303;28;20712;-63
2022/12/30 13:59:36;;;;;;;1.13;1.13;;;;;;;;;;4914749;28;20222;-62
2022/12/30 14:02:24;;;;;;;1.90;1.80;;;;;;;;;;4920495;28;20299;-64
2022/12/30 14:04:56;;;;;;;1.63;1.53;;;;;;;;;;4896846;28;20585;-63
2022/12/30 14:07:43;;;;;;;1.60;1.50;;;;;;;;;;4937581;28;20316;-62
2022/12/30 14:10:20;;;;;;;1.60;1.50;;;;;;;;;;4922737;28;20241;-63
2022/12/30 14:12:49;;;;;;;2.13;1.90;;;;;;;;;;4915131;28;20228;-62
2022/12/30 14:15:45;;;;;;;1.70;1.60;;;;;;;;;;4924669;28;20224;-64
2022/12/30 14:18:31;;;;;;;1.40;1.33;;;;;;;;;;4849784;28;20243;-63
2022/12/30 14:21:25;;;;;;;1.47;1.37;;;;;;;;;;4922964;28;20228;-63
2022/12/30 14:23:55;;;;;;;1.93;1.33;;;;;;;;;;4918405;28;20878;-62
2022/12/30 14:26:25;;;;;;;1.67;1.57;;;;;;;;;;4933522;28;20352;-63
2022/12/30 14:29:03;;;;;;;1.90;1.80;;;;;;;;;;4922828;28;20700;-62
2022/12/30 14:31:36;;;;;;;2.13;1.57;;;;;;;;;;4914359;28;20209;-62
2022/12/30 14:34:07;;;;;;;1.80;1.57;;;;;;;;;;4918582;28;20221;-62
2022/12/30 14:36:36;;;;;;;1.30;1.30;;;;;;;;;;4924756;28;20201;-61
2022/12/30 14:39:24;;;;;;;2.10;1.30;;;;;;;;;;4922560;28;20328;-64
2022/12/30 14:41:52;;;;;;;1.53;1.43;;;;;;;;;;4934707;28;20240;-63
2022/12/30 14:44:21;;;;;;;2.73;1.90;;;;;;;;;;4918351;28;20711;-63
2022/12/30 14:46:52;;;;;;;1.80;1.70;;;;;;;;;;4938219;28;20375;-64
2022/12/30 14:49:39;;;;;;;1.67;1.57;;;;;;;;;;4936003;28;20339;-62
2022/12/30 14:52:09;;;;;;;1.90;1.80;;;;;;;;;;4924367;28;20204;-62
2022/12/30 14:54:47;;;;;;;2.50;2.30;;;;;;;;;;4922253;28;20247;-62
2022/12/30 14:57:17;;;;;;;1.97;1.73;;;;;;;;;;4913959;28;20715;-62
2022/12/30 14:59:47;;;;;;;1.90;1.80;;;;;;;;;;4939213;28;20273;-62
2022/12/30 15:02:17;;;;;;;1.70;1.60;;;;;;;;;;4937873;28;20295;-63
2022/12/30 15:04:46;;;;;;;1.40;1.30;;;;;;;;;;4944873;28;20209;-62
2022/12/30 15:07:19;;;;;;;1.50;1.40;;;;;;;;;;4925912;28;20305;-62
2022/12/30 15:09:47;;;;;;;1.70;1.60;;;;;;;;;;4921171;28;20624;-63
2022/12/30 15:12:14;;;;;;;1.67;1.57;;;;;;;;;;4932588;28;20213;-63
2022/12/30 15:14:46;;;;;;;3.20;2.10;;;;;;;;;;4946422;28;20272;-65
2022/12/30 15:17:17;;;;;;;1.77;1.30;;;;;;;;;;4948943;28;20668;-65
2022/12/30 15:19:45;;;;;;;1.70;1.60;;;;;;;;;;4945146;28;20221;-65
2022/12/30 15:22:13;;;;;;;2.17;2.07;;;;;;;;;;4929689;28;20228;-62
2022/12/30 15:24:44;;;;;;;1.80;1.70;;;;;;;;;;4939089;28;20285;-63
2022/12/30 15:27:22;;;;;;;1.70;1.60;;;;;;;;;;4929226;28;20807;-63
2022/12/30 15:29:51;;;;;;;3.20;1.90;;;;;;;;;;4924052;28;20852;-65
2022/12/30 15:32:30;;;;;;;2.07;1.97;;;;;;;;;;4922294;28;20216;-62
2022/12/30 15:35:08;;;;;;;2.03;1.83;;;;;;;;;;4933395;28;20344;-63
2022/12/30 15:37:36;;;;;;;1.80;1.70;;;;;;;;;;4931691;28;20681;-63
2022/12/30 15:40:11;;;;;;;1.70;1.60;;;;;;;;;;4921624;28;20224;-63
2022/12/30 15:42:41;;;;;;;2.20;1.40;;;;;;;;;;4932653;28;20319;-65
2022/12/30 15:45:28;;;;;;;1.50;1.40;;;;;;;;;;4926288;28;20236;-64
2022/12/30 15:47:56;;;;;;;1.77;1.67;;;;;;;;;;4933798;28;20231;-64
2022/12/30 15:50:37;;;;;;;1.60;1.50;;;;;;;;;;4932279;28;20205;-64
2022/12/30 15:53:31;;;;;;;1.70;1.60;;;;;;;;;;4944870;28;20237;-64
2022/12/30 15:55:59;;;;;;;2.07;1.97;;;;;;;;;;4924453;28;20210;-64
2022/12/30 15:58:37;;;;;;;2.27;2.07;;;;;;;;;;4927576;28;20302;-64
2022/12/30 16:01:32;;;;;;;2.10;2.00;;;;;;;;;;4931548;28;20205;-64